createdAt,value
2023-03-11T00:00:46.934Z,97778.08
2023-03-11T00:05:43.383Z,97774.69
2023-03-11T00:10:39.268Z,97775.08
2023-03-11T00:15:32.728Z,97771.34
2023-03-11T00:20:28.744Z,97773.81
2023-03-11T00:25:23.998Z,97774.54
2023-03-11T00:30:18.600Z,97763.70
2023-03-11T00:35:18.088Z,97762.88
2023-03-11T00:40:18.763Z,97755.04
2023-03-11T00:45:13.128Z,97752.65
2023-03-11T00:50:07.873Z,97747.38
2023-03-11T00:55:01.068Z,97737.96
2023-03-11T00:59:53.984Z,97739.88
2023-03-11T01:04:46.816Z,97729.76
2023-03-11T01:09:39.906Z,97726.56
2023-03-11T01:14:33.992Z,97721.33
2023-03-11T01:19:27.241Z,97721.54
2023-03-11T01:24:20.367Z,97723.34
2023-03-11T01:29:13.150Z,97716.70
2023-03-11T01:34:07.448Z,97713.83
2023-03-11T01:39:00.266Z,97705.65
2023-03-11T01:43:55.748Z,97708.77
2023-03-11T01:49:00.139Z,97706.24
2023-03-11T01:53:57.272Z,97705.77
2023-03-11T01:58:54.433Z,97702.02
2023-03-11T02:03:48.131Z,97697.77
2023-03-11T02:08:42.872Z,97701.25
2023-03-11T02:13:37.648Z,97689.11
2023-03-11T02:18:32.802Z,97693.98
2023-03-11T02:23:32.201Z,97699.38
2023-03-11T02:28:26.920Z,97697.87
2023-03-11T02:33:20.612Z,97693.98
2023-03-11T02:38:14.532Z,97689.06
2023-03-11T02:43:11.759Z,97684.61
2023-03-11T02:48:05.449Z,97679.16
2023-03-11T02:52:59.056Z,97680.04
2023-03-11T02:57:51.883Z,97683.33
2023-03-11T03:02:47.001Z,97683.71
2023-03-11T03:07:40.348Z,97684.11
2023-03-11T03:12:33.487Z,97683.30
2023-03-11T03:17:26.753Z,97682.48
2023-03-11T03:22:19.654Z,97678.91
2023-03-11T03:27:13.032Z,97684.09
2023-03-11T03:32:06.921Z,97681.54
2023-03-11T03:37:03.435Z,97676.08
2023-03-11T03:41:56.329Z,97675.26
2023-03-11T03:46:49.731Z,97676.83
2023-03-11T03:51:43.278Z,97679.25
2023-03-11T03:56:43.009Z,97675.65
2023-03-11T04:01:36.110Z,97668.98
2023-03-11T04:06:29.591Z,97653.42
2023-03-11T04:11:25.960Z,97645.58
2023-03-11T04:16:22.615Z,97639.77
2023-03-11T04:21:16.638Z,97639.94
2023-03-11T04:26:10.420Z,97637.55
2023-03-11T04:31:03.850Z,97643.54
2023-03-11T04:35:57.518Z,97643.86
2023-03-11T04:40:51.142Z,97639.23
2023-03-11T04:45:44.170Z,97642.66
2023-03-11T04:50:37.893Z,97646.24
2023-03-11T04:55:31.229Z,97647.27
2023-03-11T05:00:27.188Z,97651.52
2023-03-11T05:05:28.249Z,97664.87
2023-03-11T05:10:23.531Z,97663.48
2023-03-11T05:15:20.704Z,97660.05
2023-03-11T05:20:15.856Z,97654.69
2023-03-11T05:25:09.701Z,97646.59
2023-03-11T05:30:03.285Z,97643.14
2023-03-11T05:34:57.525Z,97644.82
2023-03-11T05:39:50.543Z,97646.84
2023-03-11T05:44:43.658Z,97636.85
2023-03-11T05:49:37.807Z,97629.08
2023-03-11T05:54:31.118Z,97633.50
2023-03-11T05:59:24.122Z,97631.73
2023-03-11T06:04:21.691Z,97628.75
2023-03-11T06:09:15.806Z,97632.97
2023-03-11T06:14:13.491Z,97637.85
2023-03-11T06:19:07.037Z,97642.89
2023-03-11T06:24:02.911Z,97643.47
2023-03-11T06:28:56.539Z,97655.55
2023-03-11T06:33:49.803Z,97655.07
2023-03-11T06:38:43.316Z,97656.09
2023-03-11T06:43:37.632Z,97658.23
2023-03-11T06:48:30.892Z,97657.83
2023-03-11T06:53:25.737Z,97661.34
2023-03-11T06:58:18.680Z,97662.45
2023-03-11T07:03:11.635Z,97665.52
2023-03-11T07:08:04.626Z,97665.58
2023-03-11T07:12:57.546Z,97662.23
2023-03-11T07:17:50.702Z,97666.16
2023-03-11T07:22:43.948Z,97669.52
2023-03-11T07:27:36.877Z,97680.19
2023-03-11T07:32:29.937Z,97681.55
2023-03-11T07:37:22.849Z,97689.27
2023-03-11T07:42:15.663Z,97691.61
2023-03-11T07:47:08.574Z,97694.08
2023-03-11T07:52:02.182Z,97694.11
2023-03-11T07:56:54.988Z,97698.09
2023-03-11T08:01:48.276Z,97707.16
2023-03-11T08:06:43.612Z,97705.18
2023-03-11T08:11:37.630Z,97708.08
2023-03-11T08:16:32.223Z,97714.45
2023-03-11T08:21:32.264Z,97721.02
2023-03-11T08:26:25.259Z,97718.17
2023-03-11T08:31:30.656Z,97710.81
2023-03-11T08:36:23.610Z,97722.02
2023-03-11T08:41:17.450Z,97727.41
2023-03-11T08:46:16.483Z,97732.21
2023-03-11T08:51:14.339Z,97734.51
2023-03-11T08:56:07.717Z,97744.24
2023-03-11T09:01:00.887Z,97748.75
2023-03-11T09:06:06.124Z,97755.02
2023-03-11T09:10:59.114Z,97762.54
2023-03-11T09:15:53.018Z,97774.15
2023-03-11T09:20:46.986Z,97778.02
2023-03-11T09:25:39.793Z,97778.05
2023-03-11T09:30:32.875Z,97790.62
2023-03-11T09:35:26.245Z,97795.21
2023-03-11T09:40:22.295Z,97794.74
2023-03-11T09:45:22.896Z,97801.15
2023-03-11T09:50:31.559Z,97806.23
2023-03-11T09:55:37.471Z,97805.74
2023-03-11T10:00:30.640Z,97808.89
2023-03-11T10:05:27.825Z,97815.89
2023-03-11T10:10:21.176Z,97823.19
2023-03-11T10:15:35.982Z,97832.87
2023-03-11T10:20:57.901Z,97847.19
2023-03-11T10:26:28.791Z,97866.08
2023-03-11T10:31:50.386Z,97879.79
2023-03-11T10:37:00.364Z,97908.00
2023-03-11T10:42:04.342Z,97924.17
2023-03-11T10:46:57.507Z,97946.36
2023-03-11T10:51:52.788Z,97957.29
2023-03-11T10:56:56.524Z,97967.52
2023-03-11T11:02:05.111Z,97981.98
2023-03-11T11:06:59.537Z,97994.06
2023-03-11T11:12:03.673Z,98007.29
2023-03-11T11:16:56.490Z,98020.86
2023-03-11T11:21:52.605Z,98034.06
2023-03-11T11:27:05.772Z,98051.20
2023-03-11T11:32:17.184Z,98069.02
2023-03-11T11:37:15.448Z,98085.58
2023-03-11T11:42:13.441Z,98105.23
2023-03-11T11:47:19.228Z,98111.37
2023-03-11T11:52:25.392Z,98133.23
2023-03-11T11:57:21.966Z,98144.84
2023-03-11T12:02:18.360Z,98154.58
2023-03-11T12:07:13.913Z,98169.42
2023-03-11T12:12:09.459Z,98189.79
2023-03-11T12:17:07.557Z,98200.84
2023-03-11T12:22:28.584Z,98208.67
2023-03-11T12:28:06.451Z,98220.23
2023-03-11T12:33:06.595Z,98237.83
2023-03-11T12:38:14.490Z,98252.17
2023-03-11T12:43:23.697Z,98268.38
2023-03-11T12:48:28.455Z,98278.63
2023-03-11T12:53:21.835Z,98295.52
2023-03-11T12:58:54.377Z,98308.58
2023-03-11T13:03:59.077Z,98328.41
2023-03-11T13:08:55.950Z,98344.52
2023-03-11T13:13:48.735Z,98354.67
2023-03-11T13:18:43.444Z,98369.27
2023-03-11T13:23:40.598Z,98379.45
2023-03-11T13:28:54.471Z,98390.70
2023-03-11T13:33:53.797Z,98405.13
2023-03-11T13:39:05.724Z,98416.35
2023-03-11T13:44:05.384Z,98436.49
2023-03-11T13:49:11.458Z,98448.92
2023-03-11T13:54:17.838Z,98469.71
2023-03-11T13:59:28.571Z,98489.44
2023-03-11T14:04:28.168Z,98504.15
2023-03-11T14:09:23.841Z,98519.89
2023-03-11T14:14:37.409Z,98537.13
2023-03-11T14:19:30.245Z,98557.84
2023-03-11T14:24:32.667Z,98570.84
2023-03-11T14:29:36.585Z,98584.52
2023-03-11T14:34:31.763Z,98597.95
2023-03-11T14:39:24.524Z,98607.17
2023-03-11T14:44:17.904Z,98618.95
2023-03-11T14:49:19.860Z,98629.04
2023-03-11T14:54:22.754Z,98635.02
2023-03-11T14:59:23.268Z,98656.95
2023-03-11T15:04:38.474Z,98664.94
2023-03-11T15:09:32.904Z,98680.54
2023-03-11T15:14:25.694Z,98692.17
2023-03-11T15:19:30.487Z,98697.61
2023-03-11T15:24:27.894Z,98715.50
2023-03-11T15:29:21.486Z,98721.84
2023-03-11T15:34:20.308Z,98735.16
2023-03-11T15:39:18.656Z,98744.52
2023-03-11T15:44:34.285Z,98753.02
2023-03-11T15:49:27.451Z,98765.44
2023-03-11T15:54:20.256Z,98776.26
2023-03-11T15:59:16.355Z,98788.78
2023-03-11T16:04:16.525Z,98801.53
2023-03-11T16:09:10.358Z,98814.33
2023-03-11T16:14:03.572Z,98825.95
2023-03-11T16:18:56.376Z,98835.48
2023-03-11T16:23:52.221Z,98855.73
2023-03-11T16:28:45.369Z,98858.88
2023-03-11T16:33:38.382Z,98875.87
2023-03-11T16:38:32.445Z,98887.42
2023-03-11T16:43:25.521Z,98903.93
2023-03-11T16:48:18.324Z,98913.94
2023-03-11T16:53:11.290Z,98920.92
2023-03-11T16:58:04.611Z,98934.70
2023-03-11T17:02:57.825Z,98949.95
2023-03-11T17:07:54.769Z,98969.09
2023-03-11T17:12:47.732Z,98974.72
2023-03-11T17:17:40.513Z,98983.55
2023-03-11T17:22:33.446Z,98998.66
2023-03-11T17:27:26.281Z,99010.83
2023-03-11T17:32:20.171Z,99022.58
2023-03-11T17:37:14.352Z,99034.70
2023-03-11T17:42:07.592Z,99031.68
2023-03-11T17:47:00.717Z,99045.25
2023-03-11T17:51:53.975Z,99053.95
2023-03-11T17:56:47.246Z,99062.33
2023-03-11T18:01:40.403Z,99065.36
2023-03-11T18:06:33.172Z,99070.91
2023-03-11T18:11:28.670Z,99084.35
2023-03-11T18:16:27.985Z,99089.77
2023-03-11T18:21:26.282Z,99103.23
2023-03-11T18:26:20.011Z,99109.20
2023-03-11T18:31:17.720Z,99129.16
2023-03-11T18:36:14.605Z,99129.27
2023-03-11T18:41:07.537Z,99142.38
2023-03-11T18:46:01.969Z,99151.72
2023-03-11T18:50:56.650Z,99157.15
2023-03-11T18:55:49.877Z,99164.16
2023-03-11T19:00:42.649Z,99180.58
2023-03-11T19:05:35.448Z,99190.25
2023-03-11T19:10:28.251Z,99201.97
2023-03-11T19:15:23.165Z,99208.06
2023-03-11T19:20:16.132Z,99218.73
2023-03-11T19:25:09.320Z,99229.20
2023-03-11T19:30:02.113Z,99236.79
2023-03-11T19:34:54.909Z,99245.63
2023-03-11T19:39:47.675Z,99255.83
2023-03-11T19:44:40.533Z,99264.29
2023-03-11T19:49:33.597Z,99273.80
2023-03-11T19:54:26.402Z,99282.33
2023-03-11T19:59:19.204Z,99292.05
2023-03-11T20:04:12.716Z,99296.08
2023-03-11T20:09:07.043Z,99307.71
2023-03-11T20:13:59.872Z,99311.31
2023-03-11T20:18:53.242Z,99314.10
2023-03-11T20:23:46.092Z,99319.96
2023-03-11T20:28:39.330Z,99327.69
2023-03-11T20:33:32.458Z,99336.18
2023-03-11T20:38:25.340Z,99340.50
2023-03-11T20:43:19.878Z,99338.98
2023-03-11T20:48:12.705Z,99342.61
2023-03-11T20:53:06.599Z,99357.14
2023-03-11T20:57:59.901Z,99364.50
2023-03-11T21:02:53.101Z,99366.14
2023-03-11T21:07:46.158Z,99372.70
2023-03-11T21:12:39.838Z,99375.59
2023-03-11T21:17:32.936Z,99379.92
2023-03-11T21:22:26.175Z,99377.48
2023-03-11T21:27:20.950Z,99383.69
2023-03-11T21:32:14.005Z,99385.52
2023-03-11T21:37:07.192Z,99391.36
2023-03-11T21:42:00.564Z,99390.73
2023-03-11T21:46:53.556Z,99397.30
2023-03-11T21:51:47.642Z,99404.02
2023-03-11T21:56:40.998Z,99411.21
2023-03-11T22:01:34.795Z,99414.27
2023-03-11T22:06:30.959Z,99419.06
2023-03-11T22:11:24.376Z,99423.75
2023-03-11T22:16:17.255Z,99428.03
2023-03-11T22:21:11.210Z,99430.41
2023-03-11T22:26:04.356Z,99433.46
2023-03-11T22:30:57.230Z,99439.63
2023-03-11T22:35:55.575Z,99442.73
2023-03-11T22:40:48.990Z,99447.97
2023-03-11T22:45:41.828Z,99447.50
2023-03-11T22:50:36.508Z,99453.66
2023-03-11T22:55:29.330Z,99457.76
2023-03-11T23:00:24.603Z,99463.20
2023-03-11T23:05:17.536Z,99471.67
2023-03-11T23:10:13.550Z,99475.16
2023-03-11T23:15:09.805Z,99473.70
2023-03-11T23:20:03.799Z,99476.64
2023-03-11T23:24:56.635Z,99476.29
2023-03-11T23:29:50.715Z,99478.52
2023-03-11T23:34:43.820Z,99484.61
2023-03-11T23:39:36.608Z,99490.36
2023-03-11T23:44:29.413Z,99488.45
2023-03-11T23:49:22.667Z,99494.07
2023-03-11T23:54:15.974Z,99494.20
2023-03-11T23:59:08.808Z,99498.30
